createdAt,value
2023-05-17T00:00:21.000Z,7.5
2023-05-17T00:00:56.000Z,7.5
2023-05-17T00:01:36.000Z,7.5
2023-05-17T00:02:03.000Z,7.5
2023-05-17T00:02:34.000Z,7.5
2023-05-17T00:03:01.000Z,7.5
2023-05-17T00:03:37.000Z,7.5
2023-05-17T00:03:58.000Z,7.5
2023-05-17T00:04:21.000Z,7.5
2023-05-17T00:04:56.000Z,7.3888888888888875
2023-05-17T00:05:26.000Z,7.3888888888888875
2023-05-17T00:06:02.000Z,7.3888888888888875
2023-05-17T00:06:31.000Z,7.277777777777778
2023-05-17T00:07:01.000Z,7.277777777777778
2023-05-17T00:07:36.000Z,7.277777777777778
2023-05-17T00:07:58.000Z,7.3888888888888875
2023-05-17T00:08:21.000Z,7.3888888888888875
2023-05-17T00:08:57.000Z,7.3888888888888875
2023-05-17T00:09:26.000Z,7.3888888888888875
2023-05-17T00:10:01.000Z,7.3888888888888875
2023-05-17T00:10:31.000Z,7.277777777777778
2023-05-17T00:11:01.000Z,7.277777777777778
2023-05-17T00:11:37.000Z,7.277777777777778
2023-05-17T00:11:58.000Z,7.277777777777778
2023-05-17T00:12:21.000Z,7.277777777777778
2023-05-17T00:12:56.000Z,7.222222222222222
2023-05-17T00:13:26.000Z,7.222222222222222
2023-05-17T00:14:01.000Z,7.222222222222222
2023-05-17T00:14:29.000Z,7.11111111111111
2023-05-17T00:14:46.000Z,7.11111111111111
2023-05-17T00:15:21.000Z,7.11111111111111
2023-05-17T00:15:51.000Z,7.11111111111111
2023-05-17T00:16:21.000Z,7.000000000000001
2023-05-17T00:16:56.000Z,7.000000000000001
2023-05-17T00:17:26.000Z,7.000000000000001
2023-05-17T00:18:01.000Z,7.000000000000001
2023-05-17T00:18:31.000Z,6.888888888888888
2023-05-17T00:19:01.000Z,6.888888888888888
2023-05-17T00:19:36.000Z,6.888888888888888
2023-05-17T00:19:58.000Z,6.888888888888888
2023-05-17T00:20:26.000Z,6.888888888888888
2023-05-17T00:20:56.000Z,6.888888888888888
2023-05-17T00:21:26.000Z,6.7777777777777795
2023-05-17T00:22:01.000Z,6.7777777777777795
2023-05-17T00:22:32.000Z,6.7777777777777795
2023-05-17T00:23:01.000Z,6.7777777777777795
2023-05-17T00:23:17.000Z,6.7777777777777795
2023-05-17T00:23:36.000Z,6.7777777777777795
2023-05-17T00:23:58.000Z,6.7777777777777795
2023-05-17T00:24:21.000Z,6.7777777777777795
2023-05-17T00:24:57.000Z,6.7777777777777795
2023-05-17T00:25:26.000Z,6.7777777777777795
2023-05-17T00:26:11.000Z,6.722222222222223
2023-05-17T00:26:34.000Z,6.722222222222223
2023-05-17T00:27:02.000Z,6.722222222222223
2023-05-17T00:27:36.000Z,6.722222222222223
2023-05-17T00:27:58.000Z,6.611111111111111
2023-05-17T00:28:22.000Z,6.611111111111111
2023-05-17T00:28:56.000Z,6.611111111111111
2023-05-17T00:29:27.000Z,6.611111111111111
2023-05-17T00:30:01.000Z,6.611111111111111
2023-05-17T00:30:31.000Z,6.611111111111111
2023-05-17T00:31:01.000Z,6.611111111111111
2023-05-17T00:31:17.000Z,6.722222222222223
2023-05-17T00:31:36.000Z,6.722222222222223
2023-05-17T00:31:58.000Z,6.722222222222223
2023-05-17T00:32:23.000Z,6.722222222222223
2023-05-17T00:32:53.000Z,6.722222222222223
2023-05-17T00:33:18.000Z,6.722222222222223
2023-05-17T00:33:43.000Z,6.722222222222223
2023-05-17T00:34:11.000Z,6.722222222222223
2023-05-17T00:34:34.000Z,6.722222222222223
2023-05-17T00:35:01.000Z,6.611111111111111
2023-05-17T00:35:26.000Z,6.611111111111111
2023-05-17T00:35:53.000Z,6.611111111111111
2023-05-17T00:36:27.000Z,6.611111111111111
2023-05-17T00:36:58.000Z,6.611111111111111
2023-05-17T00:37:27.000Z,6.611111111111111
2023-05-17T00:38:03.000Z,6.611111111111111
2023-05-17T00:38:31.000Z,6.611111111111111
2023-05-17T00:39:01.000Z,6.611111111111111
2023-05-17T00:39:17.000Z,6.500000000000002
2023-05-17T00:39:36.000Z,6.500000000000002
2023-05-17T00:39:58.000Z,6.500000000000002
2023-05-17T00:40:21.000Z,6.388888888888889
2023-05-17T00:40:42.000Z,6.388888888888889
2023-05-17T00:41:09.000Z,6.388888888888889
2023-05-17T00:41:42.000Z,6.388888888888889
2023-05-17T00:42:11.000Z,6.388888888888889
2023-05-17T00:42:34.000Z,6.388888888888889
2023-05-17T00:43:01.000Z,6.388888888888889
2023-05-17T00:43:17.000Z,6.388888888888889
2023-05-17T00:43:36.000Z,6.388888888888889
2023-05-17T00:43:58.000Z,6.388888888888889
2023-05-17T00:44:21.000Z,6.388888888888889
2023-05-17T00:44:42.000Z,6.388888888888889
2023-05-17T00:45:11.000Z,6.388888888888889
2023-05-17T00:45:42.000Z,6.500000000000002
2023-05-17T00:46:16.000Z,6.611111111111111
2023-05-17T00:46:46.000Z,6.611111111111111
2023-05-17T00:47:02.000Z,6.611111111111111
2023-05-17T00:47:36.000Z,6.611111111111111
2023-05-17T00:47:58.000Z,6.611111111111111
2023-05-17T00:48:21.000Z,6.500000000000002
2023-05-17T00:48:41.000Z,6.500000000000002
2023-05-17T00:49:06.000Z,6.500000000000002
2023-05-17T00:49:29.000Z,6.500000000000002
2023-05-17T00:49:57.000Z,6.500000000000002
2023-05-17T00:50:13.000Z,6.500000000000002
2023-05-17T00:50:32.000Z,6.500000000000002
2023-05-17T00:51:01.000Z,6.500000000000002
2023-05-17T00:51:17.000Z,6.611111111111111
2023-05-17T00:51:37.000Z,6.611111111111111
2023-05-17T00:51:58.000Z,6.611111111111111
2023-05-17T00:52:21.000Z,6.611111111111111
2023-05-17T00:52:41.000Z,6.722222222222223
2023-05-17T00:52:58.000Z,6.722222222222223
2023-05-17T00:53:26.000Z,6.722222222222223
2023-05-17T00:54:02.000Z,6.722222222222223
2023-05-17T00:54:31.000Z,6.722222222222223
2023-05-17T00:55:01.000Z,6.722222222222223
2023-05-17T00:55:17.000Z,6.722222222222223
2023-05-17T00:55:36.000Z,6.722222222222223
2023-05-17T00:56:01.000Z,6.722222222222223
2023-05-17T00:56:24.000Z,6.611111111111111
2023-05-17T00:56:53.000Z,6.611111111111111
2023-05-17T00:57:18.000Z,6.611111111111111
2023-05-17T00:57:51.000Z,6.611111111111111
2023-05-17T00:58:16.000Z,6.611111111111111
2023-05-17T00:58:46.000Z,6.611111111111111
2023-05-17T00:59:17.000Z,6.611111111111111
2023-05-17T00:59:37.000Z,6.611111111111111
2023-05-17T00:59:58.000Z,6.611111111111111
2023-05-17T01:00:21.000Z,6.611111111111111
2023-05-17T01:00:42.000Z,6.611111111111111
2023-05-17T01:01:11.000Z,6.500000000000002
2023-05-17T01:01:41.000Z,6.500000000000002
2023-05-17T01:02:16.000Z,6.500000000000002
2023-05-17T01:02:47.000Z,6.388888888888889
2023-05-17T01:03:17.000Z,6.388888888888889
2023-05-17T01:03:49.000Z,6.388888888888889
2023-05-17T01:04:22.000Z,6.388888888888889
2023-05-17T01:04:56.000Z,6.500000000000002
2023-05-17T01:05:26.000Z,6.500000000000002
2023-05-17T01:06:01.000Z,6.611111111111111
2023-05-17T01:06:31.000Z,6.611111111111111
2023-05-17T01:07:02.000Z,6.611111111111111
2023-05-17T01:07:36.000Z,6.611111111111111
2023-05-17T01:07:58.000Z,6.611111111111111
2023-05-17T01:08:21.000Z,6.500000000000002
2023-05-17T01:08:56.000Z,6.500000000000002
2023-05-17T01:09:27.000Z,6.500000000000002
2023-05-17T01:10:01.000Z,6.388888888888889
2023-05-17T01:10:32.000Z,6.388888888888889
2023-05-17T01:11:02.000Z,6.388888888888889
2023-05-17T01:11:37.000Z,6.277777777777776
2023-05-17T01:11:58.000Z,6.277777777777776
2023-05-17T01:12:21.000Z,6.277777777777776
2023-05-17T01:12:56.000Z,6.277777777777776
2023-05-17T01:13:27.000Z,6.277777777777776
2023-05-17T01:14:01.000Z,6.277777777777776
2023-05-17T01:14:31.000Z,6.500000000000002
2023-05-17T01:15:01.000Z,6.500000000000002
2023-05-17T01:15:36.000Z,6.500000000000002
2023-05-17T01:15:58.000Z,6.500000000000002
2023-05-17T01:16:21.000Z,6.500000000000002
2023-05-17T01:16:56.000Z,6.500000000000002
2023-05-17T01:17:26.000Z,6.500000000000002
2023-05-17T01:18:02.000Z,6.500000000000002
2023-05-17T01:18:31.000Z,6.388888888888889
2023-05-17T01:19:01.000Z,6.388888888888889
2023-05-17T01:19:36.000Z,6.388888888888889
2023-05-17T01:19:58.000Z,6.277777777777776
2023-05-17T01:20:21.000Z,6.277777777777776
2023-05-17T01:20:56.000Z,6.277777777777776
2023-05-17T01:21:28.000Z,6.277777777777776
2023-05-17T01:22:01.000Z,6.388888888888889
2023-05-17T01:22:29.000Z,6.388888888888889
2023-05-17T01:22:56.000Z,6.388888888888889
2023-05-17T01:23:22.000Z,6.388888888888889
2023-05-17T01:23:51.000Z,6.388888888888889
2023-05-17T01:24:22.000Z,6.388888888888889
2023-05-17T01:24:57.000Z,6.388888888888889
2023-05-17T01:25:27.000Z,6.277777777777776
2023-05-17T01:26:02.000Z,6.277777777777776
2023-05-17T01:26:31.000Z,6.277777777777776
2023-05-17T01:27:01.000Z,6.277777777777776
2023-05-17T01:27:36.000Z,6.277777777777776
2023-05-17T01:27:58.000Z,6.277777777777776
2023-05-17T01:28:21.000Z,6.222222222222224
2023-05-17T01:29:06.000Z,6.222222222222224
2023-05-17T01:29:29.000Z,6.111111111111111
2023-05-17T01:29:57.000Z,6.111111111111111
2023-05-17T01:30:13.000Z,6.111111111111111
2023-05-17T01:30:31.000Z,6.111111111111111
2023-05-17T01:30:57.000Z,5.999999999999998
2023-05-17T01:31:23.000Z,5.999999999999998
2023-05-17T01:31:49.000Z,5.999999999999998
2023-05-17T01:32:16.000Z,5.999999999999998
2023-05-17T01:32:43.000Z,5.999999999999998
2023-05-17T01:33:06.000Z,5.999999999999998
2023-05-17T01:33:29.000Z,5.999999999999998
2023-05-17T01:33:57.000Z,5.999999999999998
2023-05-17T01:34:13.000Z,5.999999999999998
2023-05-17T01:34:31.000Z,5.999999999999998
2023-05-17T01:34:57.000Z,5.999999999999998
2023-05-17T01:35:22.000Z,5.999999999999998
2023-05-17T01:35:51.000Z,6.111111111111111
2023-05-17T01:36:21.000Z,6.111111111111111
2023-05-17T01:36:57.000Z,6.222222222222224
2023-05-17T01:37:26.000Z,6.222222222222224
2023-05-17T01:38:02.000Z,6.222222222222224
2023-05-17T01:38:32.000Z,6.222222222222224
2023-05-17T01:39:01.000Z,6.222222222222224
2023-05-17T01:39:17.000Z,6.222222222222224
2023-05-17T01:39:37.000Z,6.222222222222224
2023-05-17T01:39:58.000Z,6.222222222222224
2023-05-17T01:40:21.000Z,6.111111111111111
2023-05-17T01:40:42.000Z,6.111111111111111
2023-05-17T01:41:06.000Z,6.111111111111111
2023-05-17T01:41:29.000Z,6.111111111111111
2023-05-17T01:42:01.000Z,6.111111111111111
2023-05-17T01:42:31.000Z,6.111111111111111
2023-05-17T01:43:01.000Z,5.999999999999998
2023-05-17T01:43:17.000Z,5.999999999999998
2023-05-17T01:43:37.000Z,5.999999999999998
2023-05-17T01:43:58.000Z,5.888888888888889
2023-05-17T01:44:31.000Z,5.888888888888889
2023-05-17T01:45:06.000Z,5.888888888888889
2023-05-17T01:45:27.000Z,5.888888888888889
2023-05-17T01:46:01.000Z,5.888888888888889
2023-05-17T01:46:31.000Z,5.888888888888889
2023-05-17T01:47:01.000Z,5.888888888888889
2023-05-17T01:47:18.000Z,5.888888888888889
2023-05-17T01:47:49.000Z,5.888888888888889
2023-05-17T01:48:16.000Z,5.888888888888889
2023-05-17T01:48:43.000Z,5.888888888888889
2023-05-17T01:49:13.000Z,5.888888888888889
2023-05-17T01:49:46.000Z,5.888888888888889
2023-05-17T01:50:18.000Z,5.888888888888889
2023-05-17T01:50:45.000Z,5.999999999999998
2023-05-17T01:51:01.000Z,5.888888888888889
2023-05-17T01:51:33.000Z,5.888888888888889
2023-05-17T01:51:52.000Z,5.888888888888889
2023-05-17T01:52:21.000Z,5.888888888888889
2023-05-17T01:52:42.000Z,5.888888888888889
2023-05-17T01:53:09.000Z,5.888888888888889
2023-05-17T01:53:41.000Z,5.888888888888889
2023-05-17T01:54:16.000Z,5.888888888888889
2023-05-17T01:54:46.000Z,5.888888888888889
2023-05-17T01:55:17.000Z,5.888888888888889
2023-05-17T01:55:37.000Z,5.888888888888889
2023-05-17T01:55:57.000Z,5.888888888888889
2023-05-17T01:56:21.000Z,5.888888888888889
2023-05-17T01:56:42.000Z,5.888888888888889
2023-05-17T01:57:21.000Z,5.888888888888889
2023-05-17T01:57:51.000Z,5.777777777777777
2023-05-17T01:58:17.000Z,5.777777777777777
2023-05-17T01:58:46.000Z,5.777777777777777
2023-05-17T01:59:17.000Z,5.777777777777777
2023-05-17T01:59:37.000Z,5.777777777777777
2023-05-17T01:59:58.000Z,5.777777777777777
2023-05-17T02:00:21.000Z,5.777777777777777
2023-05-17T02:00:42.000Z,5.7222222222222205
2023-05-17T02:01:09.000Z,5.7222222222222205
2023-05-17T02:01:27.000Z,5.7222222222222205
2023-05-17T02:02:02.000Z,5.7222222222222205
2023-05-17T02:02:32.000Z,5.7222222222222205
2023-05-17T02:03:01.000Z,5.7222222222222205
2023-05-17T02:03:33.000Z,5.7222222222222205
2023-05-17T02:03:58.000Z,5.7222222222222205
2023-05-17T02:04:26.000Z,5.7222222222222205
2023-05-17T02:04:53.000Z,5.7222222222222205
2023-05-17T02:05:11.000Z,5.7222222222222205
2023-05-17T02:05:41.000Z,5.7222222222222205
2023-05-17T02:06:16.000Z,5.7222222222222205
2023-05-17T02:06:46.000Z,5.611111111111112
2023-05-17T02:07:22.000Z,5.611111111111112
2023-05-17T02:07:51.000Z,5.611111111111112
2023-05-17T02:08:22.000Z,5.499999999999999
2023-05-17T02:08:56.000Z,5.499999999999999
2023-05-17T02:09:26.000Z,5.499999999999999
2023-05-17T02:10:02.000Z,5.499999999999999
2023-05-17T02:10:31.000Z,5.499999999999999
2023-05-17T02:11:03.000Z,5.499999999999999
2023-05-17T02:11:36.000Z,5.611111111111112
2023-05-17T02:11:59.000Z,5.611111111111112
2023-05-17T02:12:26.000Z,5.611111111111112
2023-05-17T02:12:57.000Z,5.611111111111112
2023-05-17T02:13:26.000Z,5.611111111111112
2023-05-17T02:14:01.000Z,5.611111111111112
2023-05-17T02:14:31.000Z,5.611111111111112
2023-05-17T02:15:01.000Z,5.611111111111112
2023-05-17T02:15:36.000Z,5.611111111111112
2023-05-17T02:15:58.000Z,5.611111111111112
2023-05-17T02:16:21.000Z,5.611111111111112
2023-05-17T02:16:56.000Z,5.611111111111112
2023-05-17T02:17:27.000Z,5.611111111111112
2023-05-17T02:18:01.000Z,5.611111111111112
2023-05-17T02:18:31.000Z,5.499999999999999
2023-05-17T02:19:01.000Z,5.499999999999999
2023-05-17T02:19:36.000Z,5.499999999999999
2023-05-17T02:20:11.000Z,5.499999999999999
2023-05-17T02:20:41.000Z,5.38888888888889
2023-05-17T02:21:12.000Z,5.38888888888889
2023-05-17T02:21:41.000Z,5.38888888888889
2023-05-17T02:22:16.000Z,5.38888888888889
2023-05-17T02:22:46.000Z,5.38888888888889
2023-05-17T02:23:17.000Z,5.499999999999999
2023-05-17T02:23:37.000Z,5.499999999999999
2023-05-17T02:24:01.000Z,5.499999999999999
2023-05-17T02:24:24.000Z,5.499999999999999
2023-05-17T02:24:53.000Z,5.499999999999999
2023-05-17T02:25:18.000Z,5.499999999999999
2023-05-17T02:25:43.000Z,5.499999999999999
2023-05-17T02:26:11.000Z,5.499999999999999
2023-05-17T02:26:34.000Z,5.499999999999999
2023-05-17T02:27:03.000Z,5.499999999999999
2023-05-17T02:27:36.000Z,5.499999999999999
2023-05-17T02:27:59.000Z,5.499999999999999
2023-05-17T02:28:26.000Z,5.499999999999999
2023-05-17T02:29:06.000Z,5.499999999999999
2023-05-17T02:29:27.000Z,5.499999999999999
2023-05-17T02:30:01.000Z,5.499999999999999
2023-05-17T02:30:32.000Z,5.611111111111112
2023-05-17T02:31:01.000Z,5.611111111111112
2023-05-17T02:31:37.000Z,5.611111111111112
2023-05-17T02:31:57.000Z,5.611111111111112
2023-05-17T02:32:21.000Z,5.499999999999999
2023-05-17T02:32:57.000Z,5.499999999999999
2023-05-17T02:33:26.000Z,5.499999999999999
2023-05-17T02:34:03.000Z,5.499999999999999
2023-05-17T02:34:31.000Z,5.499999999999999
2023-05-17T02:35:11.000Z,5.499999999999999
2023-05-17T02:35:36.000Z,5.499999999999999
2023-05-17T02:36:01.000Z,5.499999999999999
2023-05-17T02:36:24.000Z,5.499999999999999
2023-05-17T02:36:53.000Z,5.499999999999999
2023-05-17T02:37:18.000Z,5.499999999999999
2023-05-17T02:37:42.000Z,5.499999999999999
2023-05-17T02:38:11.000Z,5.499999999999999
2023-05-17T02:38:34.000Z,5.499999999999999
2023-05-17T02:39:01.000Z,5.38888888888889
2023-05-17T02:39:26.000Z,5.38888888888889
2023-05-17T02:39:53.000Z,5.38888888888889
2023-05-17T02:40:26.000Z,5.38888888888889
2023-05-17T02:40:56.000Z,5.38888888888889
2023-05-17T02:41:27.000Z,5.38888888888889
2023-05-17T02:42:01.000Z,5.38888888888889
2023-05-17T02:42:32.000Z,5.38888888888889
2023-05-17T02:43:01.000Z,5.38888888888889
2023-05-17T02:43:17.000Z,5.38888888888889
2023-05-17T02:43:36.000Z,5.38888888888889
2023-05-17T02:43:58.000Z,5.38888888888889
2023-05-17T02:44:22.000Z,5.38888888888889
2023-05-17T02:44:57.000Z,5.38888888888889
2023-05-17T02:45:26.000Z,5.38888888888889
2023-05-17T02:46:02.000Z,5.38888888888889
2023-05-17T02:46:41.000Z,5.38888888888889
2023-05-17T02:47:11.000Z,5.499999999999999
2023-05-17T02:47:36.000Z,5.499999999999999
2023-05-17T02:47:58.000Z,5.499999999999999
2023-05-17T02:48:21.000Z,5.499999999999999
2023-05-17T02:48:42.000Z,5.499999999999999
2023-05-17T02:49:11.000Z,5.499999999999999
2023-05-17T02:49:41.000Z,5.499999999999999
2023-05-17T02:50:02.000Z,5.499999999999999
2023-05-17T02:50:31.000Z,5.38888888888889
2023-05-17T02:51:01.000Z,5.38888888888889
2023-05-17T02:51:17.000Z,5.38888888888889
2023-05-17T02:51:37.000Z,5.38888888888889
2023-05-17T02:51:58.000Z,5.38888888888889
2023-05-17T02:52:21.000Z,5.38888888888889
2023-05-17T02:52:41.000Z,5.38888888888889
2023-05-17T02:53:06.000Z,5.38888888888889
2023-05-17T02:53:29.000Z,5.38888888888889
2023-05-17T02:53:57.000Z,5.38888888888889
2023-05-17T02:54:31.000Z,5.38888888888889
2023-05-17T02:55:01.000Z,5.38888888888889
2023-05-17T02:55:17.000Z,5.38888888888889
2023-05-17T02:55:37.000Z,5.499999999999999
2023-05-17T02:55:58.000Z,5.499999999999999
2023-05-17T02:56:21.000Z,5.499999999999999
2023-05-17T02:56:42.000Z,5.499999999999999
2023-05-17T02:57:09.000Z,5.499999999999999
2023-05-17T02:57:26.000Z,5.499999999999999
2023-05-17T02:58:02.000Z,5.499999999999999
2023-05-17T02:58:32.000Z,5.499999999999999
2023-05-17T02:59:01.000Z,5.499999999999999
2023-05-17T02:59:36.000Z,5.611111111111112
2023-05-17T02:59:58.000Z,5.611111111111112
2023-05-17T03:00:26.000Z,5.611111111111112
2023-05-17T03:00:56.000Z,5.7222222222222205
2023-05-17T03:01:26.000Z,5.7222222222222205
2023-05-17T03:02:01.000Z,5.7222222222222205
2023-05-17T03:02:31.000Z,5.7222222222222205
2023-05-17T03:03:01.000Z,5.7222222222222205
2023-05-17T03:03:37.000Z,5.7222222222222205
2023-05-17T03:03:58.000Z,5.7222222222222205
2023-05-17T03:04:22.000Z,5.7222222222222205
2023-05-17T03:04:56.000Z,5.7222222222222205
2023-05-17T03:05:26.000Z,5.7222222222222205
2023-05-17T03:06:11.000Z,5.777777777777777
2023-05-17T03:06:34.000Z,5.777777777777777
2023-05-17T03:07:01.000Z,5.777777777777777
2023-05-17T03:07:36.000Z,5.777777777777777
2023-05-17T03:07:58.000Z,5.777777777777777
2023-05-17T03:08:21.000Z,5.888888888888889
2023-05-17T03:08:56.000Z,5.888888888888889
2023-05-17T03:09:26.000Z,5.888888888888889
2023-05-17T03:10:02.000Z,5.888888888888889
2023-05-17T03:10:32.000Z,5.888888888888889
2023-05-17T03:11:01.000Z,5.888888888888889
2023-05-17T03:11:37.000Z,5.888888888888889
2023-05-17T03:11:58.000Z,5.888888888888889
2023-05-17T03:12:26.000Z,5.888888888888889
2023-05-17T03:13:06.000Z,5.888888888888889
2023-05-17T03:13:29.000Z,5.888888888888889
2023-05-17T03:14:01.000Z,5.888888888888889
2023-05-17T03:14:31.000Z,5.888888888888889
2023-05-17T03:15:01.000Z,5.888888888888889
2023-05-17T03:15:37.000Z,5.888888888888889
2023-05-17T03:16:11.000Z,5.777777777777777
2023-05-17T03:16:41.000Z,5.777777777777777
2023-05-17T03:17:11.000Z,5.777777777777777
2023-05-17T03:17:42.000Z,5.777777777777777
2023-05-17T03:18:17.000Z,5.777777777777777
2023-05-17T03:18:46.000Z,5.777777777777777
2023-05-17T03:19:03.000Z,5.888888888888889
2023-05-17T03:19:36.000Z,5.888888888888889
2023-05-17T03:19:59.000Z,5.888888888888889
2023-05-17T03:20:26.000Z,5.888888888888889
2023-05-17T03:21:06.000Z,5.888888888888889
2023-05-17T03:21:29.000Z,5.888888888888889
2023-05-17T03:21:57.000Z,5.888888888888889
2023-05-17T03:22:13.000Z,5.888888888888889
2023-05-17T03:22:31.000Z,5.888888888888889
2023-05-17T03:22:57.000Z,5.888888888888889
2023-05-17T03:23:23.000Z,5.999999999999998
2023-05-17T03:23:49.000Z,5.999999999999998
2023-05-17T03:24:16.000Z,5.999999999999998
2023-05-17T03:24:43.000Z,5.999999999999998
2023-05-17T03:25:13.000Z,5.999999999999998
2023-05-17T03:25:46.000Z,5.999999999999998
2023-05-17T03:26:18.000Z,5.999999999999998
2023-05-17T03:26:45.000Z,5.999999999999998
2023-05-17T03:27:01.000Z,5.999999999999998
2023-05-17T03:27:33.000Z,5.999999999999998
2023-05-17T03:27:52.000Z,5.999999999999998
2023-05-17T03:28:22.000Z,5.999999999999998
2023-05-17T03:28:56.000Z,5.999999999999998
2023-05-17T03:29:26.000Z,5.999999999999998
2023-05-17T03:30:02.000Z,5.999999999999998
2023-05-17T03:30:32.000Z,5.999999999999998
2023-05-17T03:31:01.000Z,5.999999999999998
2023-05-17T03:31:37.000Z,5.999999999999998
2023-05-17T03:31:58.000Z,5.999999999999998
2023-05-17T03:32:21.000Z,5.999999999999998
2023-05-17T03:32:57.000Z,5.999999999999998
2023-05-17T03:33:28.000Z,5.999999999999998
2023-05-17T03:34:01.000Z,5.999999999999998
2023-05-17T03:34:29.000Z,5.999999999999998
2023-05-17T03:35:01.000Z,5.999999999999998
2023-05-17T03:35:37.000Z,5.999999999999998
2023-05-17T03:35:58.000Z,5.999999999999998
2023-05-17T03:36:21.000Z,5.999999999999998
2023-05-17T03:36:56.000Z,6.111111111111111
2023-05-17T03:37:27.000Z,6.111111111111111
2023-05-17T03:38:01.000Z,6.111111111111111
2023-05-17T03:38:31.000Z,6.111111111111111
2023-05-17T03:39:01.000Z,6.111111111111111
2023-05-17T03:39:37.000Z,6.111111111111111
2023-05-17T03:39:58.000Z,6.111111111111111
2023-05-17T03:40:23.000Z,6.111111111111111
2023-05-17T03:40:57.000Z,6.111111111111111
2023-05-17T03:41:26.000Z,6.111111111111111
2023-05-17T03:42:01.000Z,6.111111111111111
2023-05-17T03:42:32.000Z,6.111111111111111
2023-05-17T03:43:01.000Z,6.111111111111111
2023-05-17T03:43:37.000Z,6.111111111111111
2023-05-17T03:43:58.000Z,6.111111111111111
2023-05-17T03:44:21.000Z,6.111111111111111
2023-05-17T03:44:56.000Z,6.111111111111111
2023-05-17T03:45:27.000Z,6.111111111111111
2023-05-17T03:46:02.000Z,6.111111111111111
2023-05-17T03:46:31.000Z,6.222222222222224
2023-05-17T03:47:01.000Z,6.222222222222224
2023-05-17T03:47:36.000Z,6.222222222222224
2023-05-17T03:47:58.000Z,6.222222222222224
2023-05-17T03:48:21.000Z,6.222222222222224
2023-05-17T03:48:42.000Z,6.222222222222224
2023-05-17T03:49:09.000Z,6.222222222222224
2023-05-17T03:49:41.000Z,6.222222222222224
2023-05-17T03:50:01.000Z,6.222222222222224
2023-05-17T03:50:31.000Z,6.277777777777776
2023-05-17T03:51:01.000Z,6.277777777777776
2023-05-17T03:51:17.000Z,6.277777777777776
2023-05-17T03:52:01.000Z,6.277777777777776
2023-05-17T03:52:22.000Z,6.277777777777776
2023-05-17T03:52:42.000Z,6.277777777777776
2023-05-17T03:53:09.000Z,6.277777777777776
2023-05-17T03:53:27.000Z,6.277777777777776
2023-05-17T03:54:01.000Z,6.277777777777776
2023-05-17T03:54:31.000Z,6.277777777777776
2023-05-17T03:55:01.000Z,6.277777777777776
2023-05-17T03:55:17.000Z,6.277777777777776
2023-05-17T03:55:36.000Z,6.277777777777776
2023-05-17T03:55:58.000Z,6.277777777777776
2023-05-17T03:56:21.000Z,6.388888888888889
2023-05-17T03:56:42.000Z,6.388888888888889
2023-05-17T03:57:11.000Z,6.388888888888889
2023-05-17T03:57:41.000Z,6.388888888888889
2023-05-17T03:58:16.000Z,6.388888888888889
2023-05-17T03:58:47.000Z,6.388888888888889
2023-05-17T03:59:17.000Z,6.388888888888889
2023-05-17T03:59:37.000Z,6.388888888888889
2023-05-17T03:59:58.000Z,6.388888888888889
2023-05-17T04:00:21.000Z,6.500000000000002
2023-05-17T04:00:42.000Z,6.500000000000002
2023-05-17T04:01:09.000Z,6.500000000000002
2023-05-17T04:01:27.000Z,6.500000000000002
2023-05-17T04:02:02.000Z,6.500000000000002
2023-05-17T04:02:32.000Z,6.500000000000002
2023-05-17T04:03:01.000Z,6.500000000000002
2023-05-17T04:03:36.000Z,6.500000000000002
2023-05-17T04:04:08.000Z,6.500000000000002
2023-05-17T04:04:42.000Z,6.500000000000002
2023-05-17T04:05:09.000Z,6.500000000000002
2023-05-17T04:05:26.000Z,6.611111111111111
2023-05-17T04:06:02.000Z,6.611111111111111
2023-05-17T04:06:31.000Z,6.611111111111111
2023-05-17T04:07:02.000Z,6.611111111111111
2023-05-17T04:07:36.000Z,6.611111111111111
2023-05-17T04:07:58.000Z,6.611111111111111
2023-05-17T04:08:21.000Z,6.611111111111111
2023-05-17T04:08:56.000Z,6.611111111111111
2023-05-17T04:09:27.000Z,6.611111111111111
2023-05-17T04:10:01.000Z,6.722222222222223
2023-05-17T04:10:32.000Z,6.722222222222223
2023-05-17T04:10:57.000Z,6.722222222222223
2023-05-17T04:11:22.000Z,6.722222222222223
2023-05-17T04:11:52.000Z,6.722222222222223
2023-05-17T04:12:21.000Z,6.722222222222223
2023-05-17T04:12:56.000Z,6.7777777777777795
2023-05-17T04:13:26.000Z,6.7777777777777795
2023-05-17T04:14:01.000Z,6.7777777777777795
2023-05-17T04:14:31.000Z,6.7777777777777795
2023-05-17T04:15:01.000Z,6.888888888888888
2023-05-17T04:15:36.000Z,6.888888888888888
2023-05-17T04:15:58.000Z,6.888888888888888
2023-05-17T04:16:21.000Z,6.888888888888888
2023-05-17T04:16:53.000Z,6.888888888888888
2023-05-17T04:17:26.000Z,6.888888888888888
2023-05-17T04:18:11.000Z,6.888888888888888
2023-05-17T04:18:34.000Z,6.888888888888888
2023-05-17T04:19:01.000Z,6.888888888888888
2023-05-17T04:19:37.000Z,6.888888888888888
2023-05-17T04:20:02.000Z,6.888888888888888
2023-05-17T04:20:26.000Z,7.000000000000001
2023-05-17T04:21:06.000Z,7.000000000000001